Time;durP1;ratioP1;P1;durP2;ratioP2;P2;SDS_P1;SDS_P2;PMS_P1;PMS_P2;Temp;Humidity;BMP_temperature;BMP_pressure;BME280_temperature;BME280_humidity;BME280_pressure;Samples;Min_cycle;Max_cycle;Signal;HPM_P1;HPM_P2
2021/03/14 00:00:06;;;;;;;;;;;;;;;2.56;100.00;94638.19;1023428;28;20428;-69
2021/03/14 00:00:38;;;;;;;;;;;;;;;2.57;100.00;94639.75;1026567;28;19941;-69
2021/03/14 00:01:08;;;;;;;;;;;;;;;2.62;100.00;94630.50;1027547;28;19910;-69
2021/03/14 00:01:38;;;;;;;;;;;;;;;2.67;100.00;94628.75;1028039;28;19922;-70
2021/03/14 00:02:10;;;;;;;;;;;;;;;2.68;100.00;94634.72;1031227;28;19996;-69
2021/03/14 00:02:40;;;;;;;;;;;;;;;2.67;100.00;94635.75;1027788;28;20419;-69
2021/03/14 00:03:10;;;;;;;;;;;;;;;2.65;100.00;94640.38;1028909;28;19918;-70
2021/03/14 00:03:41;;;;;;;;;;;;;;;2.63;100.00;94642.44;1028149;28;19926;-69
2021/03/14 00:04:11;;;;;;;;;;;;;;;2.63;100.00;94632.84;1027481;28;20052;-69
2021/03/14 00:04:41;;;;;;;;;;;;;;;2.64;100.00;94644.75;1027047;28;19918;-69
2021/03/14 00:05:12;;;;;;;;;;;;;;;2.63;100.00;94637.25;1027313;28;20004;-70
2021/03/14 00:05:42;;;;;;;;;;;;;;;2.63;100.00;94639.84;1027160;28;20446;-69
2021/03/14 00:06:13;;;;;;;;;;;;;;;2.62;100.00;94635.69;1028778;28;20036;-70
2021/03/14 00:06:43;;;;;;;;;;;;;;;2.63;100.00;94639.84;1022948;28;19923;-69
2021/03/14 00:07:13;;;;;;;;;;;;;;;2.62;100.00;94636.47;1027325;28;19933;-69
2021/03/14 00:07:44;;;;;;;;;;;;;;;2.61;100.00;94645.25;1023164;28;20356;-67
2021/03/14 00:08:14;;;;;;;;;;;;;;;2.65;100.00;94650.72;1025186;28;19925;-69
2021/03/14 00:08:45;;;;;;;;;;;;;;;2.63;100.00;94637.25;1025742;28;20367;-70
2021/03/14 00:09:15;;;;;;;;;;;;;;;2.62;100.00;94640.88;1019314;29;19926;-69
2021/03/14 00:09:45;;;;;;;;;;;;;;;2.59;100.00;94637.72;1024699;28;19922;-69
2021/03/14 00:10:16;;;;;;;;;;;;;;;2.63;100.00;94637.25;1023331;28;19918;-70
2021/03/14 00:10:48;;;;;;;;;;;;;;;2.61;100.00;94637.47;1026486;28;19921;-69
2021/03/14 00:11:18;;;;;;;;;;;;;;;2.60;100.00;94631.53;1026941;28;19910;-69
2021/03/14 00:11:48;;;;;;;;;;;;;;;2.60;100.00;94644.47;1027334;28;20446;-70
2021/03/14 00:12:18;;;;;;;;;;;;;;;2.59;100.00;94642.91;1023251;28;19953;-69
2021/03/14 00:12:49;;;;;;;;;;;;;;;2.62;100.00;94630.50;1023325;28;19922;-70
2021/03/14 00:13:21;;;;;;;;;;;;;;;2.64;100.00;94644.00;1024116;28;20001;-67
2021/03/14 00:13:51;;;;;;;;;;;;;;;2.62;100.00;94635.69;1023815;28;19923;-69
2021/03/14 00:14:21;;;;;;;;;;;;;;;2.59;100.00;94637.72;1027351;28;19944;-70
2021/03/14 00:14:52;;;;;;;;;;;;;;;2.42;100.00;94615.50;1025237;28;19918;-69
2021/03/14 00:15:22;;;;;;;;;;;;;;;2.61;100.00;94640.06;1027055;28;19918;-71
2021/03/14 00:15:52;;;;;;;;;;;;;;;2.62;100.00;94638.28;1027335;28;19919;-70
2021/03/14 00:16:23;;;;;;;;;;;;;;;2.64;100.00;94639.59;1028487;28;20419;-70
2021/03/14 00:16:53;;;;;;;;;;;;;;;2.65;100.00;94641.19;1023349;29;19919;-70
2021/03/14 00:17:23;;;;;;;;;;;;;;;2.65;100.00;94640.38;1019240;29;20278;-69
2021/03/14 00:17:54;;;;;;;;;;;;;;;2.63;100.00;94643.22;1023424;29;19919;-69
2021/03/14 00:18:31;;;;;;;;;;;;;;;2.63;100.00;94642.44;1019800;28;19985;-69
2021/03/14 00:19:01;;;;;;;;;;;;;;;2.63;100.00;94639.84;1024269;28;19919;-71
2021/03/14 00:19:31;;;;;;;;;;;;;;;2.61;100.00;94642.66;1023231;29;19914;-70
2021/03/14 00:20:03;;;;;;;;;;;;;;;2.62;100.00;94644.25;1023756;28;21467;-69
2021/03/14 00:20:33;;;;;;;;;;;;;;;2.62;100.00;94640.88;1022759;29;20320;-69
2021/03/14 00:21:04;;;;;;;;;;;;;;;2.63;100.00;94637.25;1023536;28;19941;-70
2021/03/14 00:21:34;;;;;;;;;;;;;;;2.61;100.00;94640.06;1022988;28;20346;-71
2021/03/14 00:22:04;;;;;;;;;;;;;;;2.60;100.00;94639.28;1027488;28;19937;-70
2021/03/14 00:22:34;;;;;;;;;;;;;;;2.62;100.00;94635.69;1031541;28;19910;-69
2021/03/14 00:23:05;;;;;;;;;;;;;;;2.63;100.00;94642.44;1031270;28;19918;-69
2021/03/14 00:23:35;;;;;;;;;;;;;;;2.62;100.00;94640.88;1031205;28;20126;-69
2021/03/14 00:24:06;;;;;;;;;;;;;;;2.65;100.00;94641.19;1027430;28;20574;-69
2021/03/14 00:24:36;;;;;;;;;;;;;;;2.64;100.00;94644.75;1019485;29;19992;-69
2021/03/14 00:25:07;;;;;;;;;;;;;;;2.63;100.00;94640.63;1019186;29;19954;-69
2021/03/14 00:25:37;;;;;;;;;;;;;;;2.62;100.00;94644.25;1019472;29;20681;-70
2021/03/14 00:26:07;;;;;;;;;;;;;;;2.61;100.00;94634.88;1015956;29;19919;-69
2021/03/14 00:26:38;;;;;;;;;;;;;;;2.62;100.00;94640.88;1019109;29;19942;-71
2021/03/14 00:27:08;;;;;;;;;;;;;;;2.63;100.00;94640.63;1019717;29;19919;-69
2021/03/14 00:27:39;;;;;;;;;;;;;;;2.63;100.00;94643.22;1023216;28;19926;-71
2021/03/14 00:28:09;;;;;;;;;;;;;;;2.66;100.00;94644.53;1023394;28;19911;-70
2021/03/14 00:28:39;;;;;;;;;;;;;;;2.64;100.00;94644.75;1030530;28;19918;-69
2021/03/14 00:29:10;;;;;;;;;;;;;;;2.66;100.00;94642.72;1027407;28;20059;-69
2021/03/14 00:29:40;;;;;;;;;;;;;;;2.67;100.00;94643.50;1023043;29;19993;-70
2021/03/14 00:30:11;;;;;;;;;;;;;;;2.66;100.00;94647.13;1024393;28;19907;-71
2021/03/14 00:30:42;;;;;;;;;;;;;;;2.66;100.00;94647.13;1018813;29;20389;-69
2021/03/14 00:31:12;;;;;;;;;;;;;;;2.65;100.00;94651.53;1027505;28;19914;-70
2021/03/14 00:31:42;;;;;;;;;;;;;;;2.65;100.00;94650.72;1031112;28;19992;-69
2021/03/14 00:32:12;;;;;;;;;;;;;;;2.64;100.00;94646.56;1031179;28;20001;-70
2021/03/14 00:32:43;;;;;;;;;;;;;;;2.65;100.00;94648.13;1031497;28;20370;-69
2021/03/14 00:33:13;;;;;;;;;;;;;;;2.64;100.00;94649.94;1031376;28;19914;-69
2021/03/14 00:33:44;;;;;;;;;;;;;;;2.66;100.00;94647.13;1030782;28;20549;-72
2021/03/14 00:34:14;;;;;;;;;;;;;;;2.66;100.00;94641.97;1032034;28;20378;-68
2021/03/14 00:34:44;;;;;;;;;;;;;;;2.66;100.00;94641.97;1027780;28;20001;-70
2021/03/14 00:35:15;;;;;;;;;;;;;;;2.68;100.00;94639.88;1023250;28;19920;-70
2021/03/14 00:35:45;;;;;;;;;;;;;;;2.66;100.00;94634.19;1019473;29;19919;-70
2021/03/14 00:36:16;;;;;;;;;;;;;;;2.67;100.00;94639.13;1015869;29;19947;-71
2021/03/14 00:36:46;;;;;;;;;;;;;;;2.68;100.00;94637.31;1019683;29;19922;-71
2021/03/14 00:37:16;;;;;;;;;;;;;;;2.68;100.00;94645.06;1023306;28;19937;-71
2021/03/14 00:37:47;;;;;;;;;;;;;;;2.69;100.00;94641.47;1027630;28;19910;-69
2021/03/14 00:38:17;;;;;;;;;;;;;;;2.67;100.00;94643.50;1027478;28;19911;-70
2021/03/14 00:38:47;;;;;;;;;;;;;;;2.66;100.00;94641.97;1031167;28;20296;-69
2021/03/14 00:39:17;;;;;;;;;;;;;;;2.68;100.00;94645.06;1031511;28;20402;-69
2021/03/14 00:39:48;;;;;;;;;;;;;;;2.68;100.00;94640.66;1031429;28;19994;-69
2021/03/14 00:40:19;;;;;;;;;;;;;;;2.69;100.00;94637.06;1029126;28;19914;-68
2021/03/14 00:40:50;;;;;;;;;;;;;;;2.71;100.00;94644.59;1030863;28;19957;-69
2021/03/14 00:41:20;;;;;;;;;;;;;;;2.72;100.00;94646.97;1027307;28;19914;-72
2021/03/14 00:41:50;;;;;;;;;;;;;;;2.70;100.00;94640.44;1027679;28;20061;-70
2021/03/14 00:42:21;;;;;;;;;;;;;;;2.71;100.00;94645.38;1026829;28;19965;-70
2021/03/14 00:42:52;;;;;;;;;;;;;;;2.74;100.00;94644.91;1027387;28;20315;-71
2021/03/14 00:43:22;;;;;;;;;;;;;;;2.74;100.00;94644.91;1027281;28;19942;-69
2021/03/14 00:43:53;;;;;;;;;;;;;;;2.73;100.00;94640.75;1027226;28;19945;-69
2021/03/14 00:44:23;;;;;;;;;;;;;;;2.74;100.00;94641.53;1027327;28;19949;-69
2021/03/14 00:44:53;;;;;;;;;;;;;;;2.72;100.00;94646.97;1023336;29;19923;-68
2021/03/14 00:45:23;;;;;;;;;;;;;;;2.75;100.00;94635.31;1027248;28;19922;-69
2021/03/14 00:45:54;;;;;;;;;;;;;;;2.73;100.00;94638.16;1023284;28;20536;-70
2021/03/14 00:46:26;;;;;;;;;;;;;;;2.72;100.00;94630.66;1027229;28;19914;-69
2021/03/14 00:46:56;;;;;;;;;;;;;;;2.71;100.00;94639.41;1027490;28;19922;-70
2021/03/14 00:47:26;;;;;;;;;;;;;;;2.71;100.00;94632.41;1023263;28;19919;-71
2021/03/14 00:47:57;;;;;;;;;;;;;;;2.72;100.00;94633.22;1019422;29;19923;-70
2021/03/14 00:48:28;;;;;;;;;;;;;;;2.70;100.00;94638.63;1015558;29;19918;-70
2021/03/14 00:48:58;;;;;;;;;;;;;;;2.70;100.00;94643.03;1015433;29;19923;-70
2021/03/14 00:49:28;;;;;;;;;;;;;;;2.72;100.00;94641.00;1023658;28;19923;-71
2021/03/14 00:49:59;;;;;;;;;;;;;;;2.71;100.00;94642.78;1031450;28;20303;-71
2021/03/14 00:50:35;;;;;;;;;;;;;;;2.70;100.00;94638.63;1034745;28;20661;-69
2021/03/14 00:51:06;;;;;;;;;;;;;;;2.70;100.00;94632.69;1031247;28;19917;-70
2021/03/14 00:51:36;;;;;;;;;;;;;;;2.72;100.00;94646.19;1031266;28;19929;-69
2021/03/14 00:52:06;;;;;;;;;;;;;;;2.72;100.00;94635.81;1031314;28;20351;-69
2021/03/14 00:52:36;;;;;;;;;;;;;;;2.70;100.00;94638.63;1030872;28;20184;-69
2021/03/14 00:53:07;;;;;;;;;;;;;;;2.69;100.00;94631.91;1031504;28;19921;-69
2021/03/14 00:53:37;;;;;;;;;;;;;;;2.68;100.00;94632.91;1031204;28;19956;-69
2021/03/14 00:54:07;;;;;;;;;;;;;;;2.67;100.00;94633.16;1031152;28;19952;-69
2021/03/14 00:54:39;;;;;;;;;;;;;;;2.66;100.00;94627.19;1027236;28;19918;-69
2021/03/14 00:55:09;;;;;;;;;;;;;;;2.67;100.00;94633.16;1023518;28;20439;-69
2021/03/14 00:55:40;;;;;;;;;;;;;;;2.65;100.00;94630.00;1026638;28;19989;-69
2021/03/14 00:56:10;;;;;;;;;;;;;;;2.66;100.00;94634.19;1023312;29;19929;-70
2021/03/14 00:56:40;;;;;;;;;;;;;;;2.67;100.00;94643.50;1019399;29;19919;-70
2021/03/14 00:57:11;;;;;;;;;;;;;;;2.65;100.00;94630.00;1027305;28;20400;-70
2021/03/14 00:57:41;;;;;;;;;;;;;;;2.67;100.00;94643.50;1027116;28;20656;-69
2021/03/14 00:58:11;;;;;;;;;;;;;;;2.65;100.00;94641.19;1023428;28;20004;-69
2021/03/14 00:58:42;;;;;;;;;;;;;;;2.65;100.00;94636.00;1023149;29;19919;-70
2021/03/14 00:59:12;;;;;;;;;;;;;;;2.66;100.00;94644.53;1023154;28;19915;-70
2021/03/14 00:59:42;;;;;;;;;;;;;;;2.65;100.00;94640.38;1023342;28;20419;-70
2021/03/14 01:00:13;;;;;;;;;;;;;;;2.63;100.00;94648.38;1027366;28;20633;-68
2021/03/14 01:00:43;;;;;;;;;;;;;;;2.63;100.00;94642.44;1034449;28;19925;-68
2021/03/14 01:01:13;;;;;;;;;;;;;;;2.63;100.00;94648.38;1031096;28;19949;-69
2021/03/14 01:01:44;;;;;;;;;;;;;;;2.60;100.00;94646.28;1027156;28;19922;-69
2021/03/14 01:02:14;;;;;;;;;;;;;;;2.60;100.00;94647.06;1023270;29;19930;-69
2021/03/14 01:02:45;;;;;;;;;;;;;;;2.58;100.00;94638.75;1023205;28;19918;-70
2021/03/14 01:03:15;;;;;;;;;;;;;;;2.59;100.00;94645.50;1027012;28;19922;-69
2021/03/14 01:03:45;;;;;;;;;;;;;;;2.56;100.00;94645.97;1027294;28;19937;-69
2021/03/14 01:04:16;;;;;;;;;;;;;;;2.54;100.00;94652.41;1024815;28;20351;-71
2021/03/14 01:04:46;;;;;;;;;;;;;;;2.51;100.00;94640.72;1019338;29;19915;-69
2021/03/14 01:05:16;;;;;;;;;;;;;;;2.51;100.00;94645.88;1019149;29;19943;-69
2021/03/14 01:05:47;;;;;;;;;;;;;;;2.49;100.00;94642.00;1019086;29;19911;-71
2021/03/14 01:06:17;;;;;;;;;;;;;;;2.46;100.00;94645.84;1019187;29;19954;-69
2021/03/14 01:06:47;;;;;;;;;;;;;;;2.44;100.00;94642.69;1019386;29;20013;-69
2021/03/14 01:07:18;;;;;;;;;;;;;;;2.44;100.00;94645.28;1023042;29;19966;-70
2021/03/14 01:07:48;;;;;;;;;;;;;;;2.41;100.00;94645.75;1029824;28;19926;-71
2021/03/14 01:08:18;;;;;;;;;;;;;;;2.41;100.00;94637.22;1031141;28;20462;-69
2021/03/14 01:08:49;;;;;;;;;;;;;;;2.41;100.00;94644.97;1031387;28;19979;-70
2021/03/14 01:09:19;;;;;;;;;;;;;;;2.39;100.00;94644.44;1025234;28;19922;-69
2021/03/14 01:09:49;;;;;;;;;;;;;;;2.38;100.00;94640.28;1019298;29;19915;-70
2021/03/14 01:10:20;;;;;;;;;;;;;;;2.36;100.00;94648.28;1023201;29;19914;-70
2021/03/14 01:10:50;;;;;;;;;;;;;;;2.37;100.00;94647.25;1022555;28;20266;-68
2021/03/14 01:11:20;;;;;;;;;;;;;;;2.36;100.00;94640.53;1027079;28;19957;-70
2021/03/14 01:11:50;;;;;;;;;;;;;;;2.36;100.00;94643.88;1031176;28;19924;-70
2021/03/14 01:12:21;;;;;;;;;;;;;;;2.35;100.00;94642.34;1035243;28;19965;-69
2021/03/14 01:12:51;;;;;;;;;;;;;;;2.33;100.00;94638.41;1026891;28;19976;-70
2021/03/14 01:13:21;;;;;;;;;;;;;;;2.33;100.00;94641.00;1031036;28;19945;-69
2021/03/14 01:13:52;;;;;;;;;;;;;;;2.32;100.00;94636.84;1027177;28;20015;-70
2021/03/14 01:14:22;;;;;;;;;;;;;;;2.29;100.00;94643.28;1022809;28;19907;-69
2021/03/14 01:14:52;;;;;;;;;;;;;;;2.28;100.00;94639.13;1023345;29;19931;-71
2021/03/14 01:15:23;;;;;;;;;;;;;;;2.27;100.00;94641.94;1023059;29;19958;-71
2021/03/14 01:15:53;;;;;;;;;;;;;;;2.27;100.00;94634.94;1023024;29;20037;-69
2021/03/14 01:16:23;;;;;;;;;;;;;;;2.26;100.00;94637.78;1023203;28;19918;-68
2021/03/14 01:16:54;;;;;;;;;;;;;;;2.25;100.00;94641.41;1023228;29;19919;-69
2021/03/14 01:17:24;;;;;;;;;;;;;;;2.25;100.00;94638.81;1023106;29;19921;-69
2021/03/14 01:17:54;;;;;;;;;;;;;;;2.23;100.00;94636.47;1024867;28;19926;-69
2021/03/14 01:18:24;;;;;;;;;;;;;;;2.21;100.00;94635.13;1027146;28;19918;-69
2021/03/14 01:18:55;;;;;;;;;;;;;;;2.22;100.00;94636.72;1023287;29;19918;-70
2021/03/14 01:19:25;;;;;;;;;;;;;;;2.21;100.00;94629.94;1023099;28;19915;-70
2021/03/14 01:19:55;;;;;;;;;;;;;;;2.19;100.00;94642.34;1022910;28;20368;-68
2021/03/14 01:20:26;;;;;;;;;;;;;;;2.19;100.00;94637.19;1030330;28;19914;-68
2021/03/14 01:20:56;;;;;;;;;;;;;;;2.16;100.00;94630.66;1030994;28;19964;-69
2021/03/14 01:21:26;;;;;;;;;;;;;;;2.15;100.00;94641.22;1023120;28;19922;-69
2021/03/14 01:21:57;;;;;;;;;;;;;;;2.15;100.00;94638.66;1022817;29;20409;-69
2021/03/14 01:22:27;;;;;;;;;;;;;;;2.13;100.00;94633.72;1019378;29;20013;-69
2021/03/14 01:22:58;;;;;;;;;;;;;;;2.13;100.00;94634.50;1026830;28;20397;-70
2021/03/14 01:23:28;;;;;;;;;;;;;;;2.13;100.00;94638.91;1023146;28;19926;-70
2021/03/14 01:23:58;;;;;;;;;;;;;;;2.11;100.00;94633.97;1022938;29;19977;-68
2021/03/14 01:24:29;;;;;;;;;;;;;;;2.10;100.00;94634.97;1015127;29;20002;-69
2021/03/14 01:24:59;;;;;;;;;;;;;;;2.10;100.00;94637.56;1015368;29;19919;-69
2021/03/14 01:25:29;;;;;;;;;;;;;;;2.09;100.00;94623.06;1019349;29;19930;-70
2021/03/14 01:26:00;;;;;;;;;;;;;;;2.08;100.00;94631.84;1019102;29;19925;-69
2021/03/14 01:26:30;;;;;;;;;;;;;;;2.10;100.00;94624.63;1026850;28;19915;-69
2021/03/14 01:27:00;;;;;;;;;;;;;;;2.08;100.00;94625.91;1023187;28;19921;-70
2021/03/14 01:27:30;;;;;;;;;;;;;;;2.07;100.00;94622.50;1027257;28;19964;-69
2021/03/14 01:28:02;;;;;;;;;;;;;;;2.06;100.00;94625.34;1026535;28;19918;-70
2021/03/14 01:28:32;;;;;;;;;;;;;;;2.04;100.00;94625.56;1027366;28;19960;-69
2021/03/14 01:29:02;;;;;;;;;;;;;;;1.83;100.00;94592.66;1027090;28;19918;-69
2021/03/14 01:29:33;;;;;;;;;;;;;;;2.00;100.00;94631.44;1018887;28;19930;-68
2021/03/14 01:30:04;;;;;;;;;;;;;;;1.97;100.00;94624.94;1023174;29;19919;-70
2021/03/14 01:30:34;;;;;;;;;;;;;;;1.97;100.00;94619.78;1022594;28;19922;-70
2021/03/14 01:31:04;;;;;;;;;;;;;;;1.97;100.00;94630.13;1027345;28;19918;-70
2021/03/14 01:31:35;;;;;;;;;;;;;;;1.95;100.00;94621.03;1028172;28;19918;-71
2021/03/14 01:32:06;;;;;;;;;;;;;;;1.95;100.00;94616.66;1026968;28;20000;-69
2021/03/14 01:32:36;;;;;;;;;;;;;;;1.93;100.00;94613.50;1027036;28;20017;-67
2021/03/14 01:33:06;;;;;;;;;;;;;;;1.91;100.00;94620.69;1028344;28;19925;-71
2021/03/14 01:33:36;;;;;;;;;;;;;;;1.91;100.00;94618.13;1035023;28;19924;-69
2021/03/14 01:34:07;;;;;;;;;;;;;;;1.91;100.00;94610.34;1031042;28;19929;-68
2021/03/14 01:34:37;;;;;;;;;;;;;;;1.94;100.00;94620.25;1023079;29;20300;-68
2021/03/14 01:35:08;;;;;;;;;;;;;;;1.93;100.00;94618.69;1022771;28;19922;-70
2021/03/14 01:35:38;;;;;;;;;;;;;;;1.92;100.00;94622.28;1019004;29;19914;-68
2021/03/14 01:36:08;;;;;;;;;;;;;;;1.89;100.00;94615.78;1017381;29;19926;-69
2021/03/14 01:36:38;;;;;;;;;;;;;;;1.89;100.00;94620.19;1022706;28;19922;-69
2021/03/14 01:37:09;;;;;;;;;;;;;;;1.87;100.00;94620.41;1023148;29;20411;-69
2021/03/14 01:37:39;;;;;;;;;;;;;;;1.86;100.00;94613.66;1023035;29;20381;-69
2021/03/14 01:38:09;;;;;;;;;;;;;;;1.87;100.00;94615.22;1019755;28;19923;-69
2021/03/14 01:38:40;;;;;;;;;;;;;;;1.89;100.00;94618.38;1027000;28;19922;-69
2021/03/14 01:39:10;;;;;;;;;;;;;;;1.89;100.00;94617.59;1027219;28;20036;-69
2021/03/14 01:39:40;;;;;;;;;;;;;;;1.87;100.00;94612.63;1027162;28;19956;-70
2021/03/14 01:40:11;;;;;;;;;;;;;;;1.87;100.00;94612.63;1030887;28;19922;-69
2021/03/14 01:40:41;;;;;;;;;;;;;;;1.87;100.00;94614.44;1026232;28;19965;-68
2021/03/14 01:41:11;;;;;;;;;;;;;;;1.84;100.00;94614.91;1027134;28;19929;-70
2021/03/14 01:41:42;;;;;;;;;;;;;;;1.85;100.00;94614.69;1022809;28;20385;-69
2021/03/14 01:42:12;;;;;;;;;;;;;;;1.84;100.00;94615.69;1023164;29;19919;-70
2021/03/14 01:42:42;;;;;;;;;;;;;;;1.83;100.00;94608.97;1026527;28;19965;-70
2021/03/14 01:43:13;;;;;;;;;;;;;;;1.87;100.00;94612.63;1023567;28;20001;-69
2021/03/14 01:43:44;;;;;;;;;;;;;;;1.86;100.00;94610.28;1027169;28;19968;-69
2021/03/14 01:44:14;;;;;;;;;;;;;;;1.89;100.00;94617.59;1023129;28;20652;-70
2021/03/14 01:44:47;;;;;;;;;;;;;;;1.86;100.00;94607.72;1023208;28;19925;-69
2021/03/14 01:45:24;;;;;;;;;;;;;;;1.85;100.00;94606.16;1027074;28;19914;-70
2021/03/14 01:45:55;;;;;;;;;;;;;;;1.86;100.00;94607.72;1028425;28;20544;-69
2021/03/14 01:46:25;;;;;;;;;;;;;;;1.85;100.00;94603.56;1023210;29;19965;-71
2021/03/14 01:46:56;;;;;;;;;;;;;;;1.84;100.00;94607.94;1022512;29;20373;-70
2021/03/14 01:47:35;;;;;;;;;;;;;;;1.82;100.00;94604.81;1019616;29;19950;-69
2021/03/14 01:48:06;;;;;;;;;;;;;;;1.83;100.00;94606.38;1025674;28;19918;-68
2021/03/14 01:48:36;;;;;;;;;;;;;;;1.85;100.00;94611.31;1026577;28;19950;-71
2021/03/14 01:49:07;;;;;;;;;;;;;;;1.84;100.00;94601.97;1028268;28;19918;-69
2021/03/14 01:49:37;;;;;;;;;;;;;;;1.84;100.00;94614.91;1027084;28;19945;-69
2021/03/14 01:50:08;;;;;;;;;;;;;;;1.85;100.00;94606.16;1026646;28;20005;-69
2021/03/14 01:50:39;;;;;;;;;;;;;;;1.85;100.00;94606.16;1030509;28;20024;-70
2021/03/14 01:51:09;;;;;;;;;;;;;;;1.82;100.00;94602.22;1027074;28;19921;-70
2021/03/14 01:51:39;;;;;;;;;;;;;;;1.83;100.00;94605.59;1026833;28;19914;-68
2021/03/14 01:52:10;;;;;;;;;;;;;;;1.85;100.00;94600.97;1019156;29;19911;-69
2021/03/14 01:52:40;;;;;;;;;;;;;;;1.83;100.00;94603.78;1019053;28;19950;-70
2021/03/14 01:53:10;;;;;;;;;;;;;;;1.83;100.00;94605.59;1019008;29;19966;-68
2021/03/14 01:53:41;;;;;;;;;;;;;;;1.83;100.00;94605.59;1022492;28;19923;-68
2021/03/14 01:54:11;;;;;;;;;;;;;;;1.82;100.00;94612.56;1023138;29;19918;-67
2021/03/14 01:54:41;;;;;;;;;;;;;;;1.83;100.00;94619.31;1023108;28;19969;-70
2021/03/14 01:55:12;;;;;;;;;;;;;;;1.81;100.00;94620.56;1024025;28;19923;-69
2021/03/14 01:55:42;;;;;;;;;;;;;;;1.81;100.00;94616.19;1023115;29;20804;-70
2021/03/14 01:56:13;;;;;;;;;;;;;;;1.84;100.00;94612.31;1023180;29;19911;-70
2021/03/14 01:56:43;;;;;;;;;;;;;;;1.83;100.00;94618.53;1019217;29;20009;-70
2021/03/14 01:57:15;;;;;;;;;;;;;;;1.81;100.00;94613.59;1022784;28;19919;-69
2021/03/14 01:57:45;;;;;;;;;;;;;;;1.83;100.00;94613.34;1023119;29;19918;-70
2021/03/14 01:58:16;;;;;;;;;;;;;;;1.81;100.00;94618.78;1023492;28;20289;-70
2021/03/14 01:58:47;;;;;;;;;;;;;;;1.80;100.00;94622.34;1026958;28;19915;-71
2021/03/14 01:59:17;;;;;;;;;;;;;;;1.79;100.00;94618.22;1025338;28;19914;-70
2021/03/14 01:59:51;;;;;;;;;;;;;;;1.79;100.00;94617.44;1027748;28;19909;-69
2021/03/14 02:00:25;;;;;;;;;;;;;;;1.81;100.00;94617.97;1024053;28;19915;-70
2021/03/14 02:00:55;;;;;;;;;;;;;;;1.82;100.00;94617.75;1023467;28;19914;-70
2021/03/14 02:01:26;;;;;;;;;;;;;;;1.83;100.00;94615.94;1023283;29;19960;-69
2021/03/14 02:01:56;;;;;;;;;;;;;;;1.85;100.00;94616.50;1023536;28;20488;-70
2021/03/14 02:02:26;;;;;;;;;;;;;;;1.65;100.00;94591.09;1026161;28;19991;-69
2021/03/14 02:02:57;;;;;;;;;;;;;;;1.81;100.00;94612.78;1027187;28;19919;-69
2021/03/14 02:03:27;;;;;;;;;;;;;;;1.82;100.00;94616.97;1022874;28;19963;-69
2021/03/14 02:03:57;;;;;;;;;;;;;;;1.81;100.00;94615.38;1015303;29;19962;-69
2021/03/14 02:04:28;;;;;;;;;;;;;;;1.81;100.00;94617.97;1014860;29;19996;-70
2021/03/14 02:04:58;;;;;;;;;;;;;;;1.81;100.00;94621.34;1019267;29;20428;-70
2021/03/14 02:05:28;;;;;;;;;;;;;;;1.83;100.00;94619.31;1019253;28;19918;-71
2021/03/14 02:05:59;;;;;;;;;;;;;;;1.82;100.00;94612.56;1024654;28;19966;-69
2021/03/14 02:06:29;;;;;;;;;;;;;;;1.82;100.00;94612.56;1026243;28;19922;-69
2021/03/14 02:06:59;;;;;;;;;;;;;;;1.86;100.00;94624.00;1026141;28;19929;-69
2021/03/14 02:07:30;;;;;;;;;;;;;;;1.86;100.00;94623.22;1028305;28;19922;-68
2021/03/14 02:08:00;;;;;;;;;;;;;;;1.83;100.00;94618.53;1031073;28;20001;-68
2021/03/14 02:08:31;;;;;;;;;;;;;;;1.85;100.00;94622.44;1023988;28;19926;-68
2021/03/14 02:09:01;;;;;;;;;;;;;;;1.83;100.00;94624.47;1027125;28;19957;-70
2021/03/14 02:09:31;;;;;;;;;;;;;;;1.85;100.00;94626.84;1015862;28;19919;-69
2021/03/14 02:10:02;;;;;;;;;;;;;;;1.83;100.00;94624.47;1015088;29;19919;-69
2021/03/14 02:10:32;;;;;;;;;;;;;;;1.84;100.00;94620.09;1017997;29;19919;-69
2021/03/14 02:11:03;;;;;;;;;;;;;;;1.87;100.00;94614.44;1022280;29;20655;-70
2021/03/14 02:11:34;;;;;;;;;;;;;;;1.84;100.00;94620.09;1022954;29;19918;-69
2021/03/14 02:12:04;;;;;;;;;;;;;;;1.84;100.00;94618.28;1022976;28;20012;-69
2021/03/14 02:12:44;;;;;;;;;;;;;;;1.86;100.00;94623.22;1020832;28;20202;-70
2021/03/14 02:13:26;;;;;;;;;;;;;;;1.86;100.00;94625.81;1025841;28;19919;-69
2021/03/14 02:13:57;;;;;;;;;;;;;;;1.85;100.00;94621.66;1029659;28;20012;-69
2021/03/14 02:14:27;;;;;;;;;;;;;;;1.83;100.00;94623.69;1019583;28;20025;-69
2021/03/14 02:14:58;;;;;;;;;;;;;;;1.82;100.00;94622.13;1021120;28;20349;-69
2021/03/14 02:15:28;;;;;;;;;;;;;;;1.82;100.00;94622.13;1023092;28;19981;-70
2021/03/14 02:16:00;;;;;;;;;;;;;;;1.83;100.00;94624.47;1018827;29;19944;-69
2021/03/14 02:16:33;;;;;;;;;;;;;;;1.84;100.00;94622.66;1022987;29;19958;-69
2021/03/14 02:17:03;;;;;;;;;;;;;;;1.83;100.00;94621.13;1019461;29;19930;-70
2021/03/14 02:17:33;;;;;;;;;;;;;;;1.83;100.00;94628.88;1019156;29;20312;-70
2021/03/14 02:18:04;;;;;;;;;;;;;;;1.82;100.00;94616.97;1015002;29;19919;-70
2021/03/14 02:18:34;;;;;;;;;;;;;;;1.84;100.00;94622.66;1009166;29;20454;-69
2021/03/14 02:19:07;;;;;;;;;;;;;;;1.84;100.00;94623.44;1019248;29;19915;-71
2021/03/14 02:19:37;;;;;;;;;;;;;;;1.84;100.00;94625.25;1023218;28;20277;-71
2021/03/14 02:20:12;;;;;;;;;;;;;;;1.86;100.00;94629.19;1022825;28;19957;-69
2021/03/14 02:20:42;;;;;;;;;;;;;;;1.88;100.00;94627.16;1022349;29;20388;-71
2021/03/14 02:21:13;;;;;;;;;;;;;;;1.85;100.00;94625.03;1023623;28;19923;-69
2021/03/14 02:21:43;;;;;;;;;;;;;;;1.84;100.00;94625.25;1015322;29;20385;-69
2021/03/14 02:22:13;;;;;;;;;;;;;;;1.85;100.00;94626.84;1018701;29;20234;-69
2021/03/14 02:22:44;;;;;;;;;;;;;;;1.85;100.00;94624.25;1019088;29;19915;-69
2021/03/14 02:23:24;;;;;;;;;;;;;;;1.84;100.00;94625.25;1019104;28;20025;-69
2021/03/14 02:23:56;;;;;;;;;;;;;;;1.83;100.00;94623.69;1022645;28;20002;-69
2021/03/14 02:24:27;;;;;;;;;;;;;;;1.80;100.00;94624.94;1018893;29;19947;-69
2021/03/14 02:24:58;;;;;;;;;;;;;;;1.82;100.00;94629.91;1016560;29;19922;-69
2021/03/14 02:25:31;;;;;;;;;;;;;;;1.81;100.00;94623.94;1015475;29;19915;-70
2021/03/14 02:26:04;;;;;;;;;;;;;;;1.81;100.00;94625.72;1023685;28;20003;-70
2021/03/14 02:26:36;;;;;;;;;;;;;;;1.82;100.00;94627.31;1023491;28;19911;-69
2021/03/14 02:27:07;;;;;;;;;;;;;;;1.81;100.00;94620.56;1025217;28;19914;-70
2021/03/14 02:27:38;;;;;;;;;;;;;;;1.78;100.00;94621.81;1015638;29;20362;-69
2021/03/14 02:28:09;;;;;;;;;;;;;;;1.78;100.00;94621.81;1014960;29;19915;-70
2021/03/14 02:28:39;;;;;;;;;;;;;;;1.79;100.00;94627.78;1017384;29;19922;-69
2021/03/14 02:29:12;;;;;;;;;;;;;;;1.80;100.00;94621.56;1015636;28;19925;-70
2021/03/14 02:29:43;;;;;;;;;;;;;;;1.80;100.00;94622.34;1023359;28;19914;-68
2021/03/14 02:30:13;;;;;;;;;;;;;;;1.79;100.00;94625.19;1022691;28;19921;-67
2021/03/14 02:30:44;;;;;;;;;;;;;;;1.79;100.00;94633.72;1026162;28;19914;-69
2021/03/14 02:31:16;;;;;;;;;;;;;;;1.78;100.00;94623.63;1027069;28;20731;-69
2021/03/14 02:31:47;;;;;;;;;;;;;;;1.78;100.00;94631.38;1030854;28;20387;-70
2021/03/14 02:32:18;;;;;;;;;;;;;;;1.77;100.00;94629.81;1025949;28;19914;-70
2021/03/14 02:32:48;;;;;;;;;;;;;;;1.81;100.00;94628.31;1018820;29;19926;-70
2021/03/14 02:33:19;;;;;;;;;;;;;;;1.82;100.00;94629.91;1015071;29;20028;-71
2021/03/14 02:33:51;;;;;;;;;;;;;;;1.81;100.00;94631.69;1017481;29;20404;-69
2021/03/14 02:34:23;;;;;;;;;;;;;;;1.80;100.00;94634.50;1019707;28;19919;-69
2021/03/14 02:34:55;;;;;;;;;;;;;;;1.81;100.00;94630.91;1026854;28;20327;-69
2021/03/14 02:35:26;;;;;;;;;;;;;;;1.79;100.00;94632.94;1031401;28;19910;-71
2021/03/14 02:35:56;;;;;;;;;;;;;;;1.80;100.00;94624.94;1025122;28;19946;-69
2021/03/14 02:36:26;;;;;;;;;;;;;;;1.81;100.00;94630.91;1026920;28;20284;-69
2021/03/14 02:36:57;;;;;;;;;;;;;;;1.80;100.00;94627.53;1026817;28;20433;-71
2021/03/14 02:37:27;;;;;;;;;;;;;;;1.81;100.00;94628.31;1026469;28;19914;-67
2021/03/14 02:37:57;;;;;;;;;;;;;;;1.81;100.00;94636.06;1026967;28;19922;-69
2021/03/14 02:38:28;;;;;;;;;;;;;;;1.81;100.00;94631.69;1027012;28;19921;-69
2021/03/14 02:38:58;;;;;;;;;;;;;;;1.82;100.00;94630.69;1032544;28;19992;-69
2021/03/14 02:39:28;;;;;;;;;;;;;;;1.80;100.00;94637.09;1031073;28;19929;-70
2021/03/14 02:39:59;;;;;;;;;;;;;;;1.83;100.00;94628.88;1030976;28;19918;-70